createdAt,value
2023-03-23T15:57:57.240Z,45.08
2023-03-23T16:00:26.392Z,44.50
2023-03-23T16:02:58.005Z,45.21
2023-03-23T16:05:25.498Z,45.47
2023-03-23T16:07:52.535Z,45.77
2023-03-23T16:10:22.531Z,44.98
2023-03-23T16:12:49.556Z,45.56
2023-03-23T16:16:10.038Z,45.69
2023-03-23T16:18:36.977Z,45.08
2023-03-23T16:21:04.372Z,45.82
2023-03-23T16:23:31.365Z,45.23
2023-03-23T16:25:58.285Z,44.66
2023-03-23T16:28:25.396Z,46.44
2023-03-23T16:30:52.631Z,46.10
2023-03-23T16:33:19.625Z,46.28
2023-03-23T16:35:46.710Z,46.64
2023-03-23T16:38:16.502Z,47.60
2023-03-23T16:40:45.346Z,47.58
2023-03-23T16:43:13.236Z,46.69
2023-03-23T16:45:43.904Z,47.82
2023-03-23T16:48:13.179Z,48.23
2023-03-23T16:50:41.463Z,48.17
2023-03-23T16:53:09.308Z,47.88
2023-03-23T16:55:37.391Z,49.01
2023-03-23T16:58:16.428Z,48.29
2023-03-23T17:00:45.852Z,48.79
2023-03-23T17:03:13.648Z,48.61
2023-03-23T17:05:41.260Z,48.74
2023-03-23T17:08:08.170Z,48.90
2023-03-23T17:10:37.731Z,49.38
2023-03-23T17:13:04.618Z,49.24
2023-03-23T17:15:31.614Z,49.90
2023-03-23T17:17:58.576Z,49.73
2023-03-23T17:20:25.973Z,49.33
2023-03-23T17:22:52.882Z,48.76
2023-03-23T17:25:19.821Z,49.71
2023-03-23T17:27:46.766Z,48.99
2023-03-23T17:30:13.895Z,48.98
2023-03-23T17:32:40.776Z,48.90
2023-03-23T17:35:08.762Z,49.21
2023-03-23T17:37:38.524Z,49.38
2023-03-23T17:40:10.402Z,49.37
2023-03-23T17:42:38.453Z,49.92
2023-03-23T17:45:08.369Z,50.79
2023-03-23T17:47:36.398Z,50.76
2023-03-23T17:50:11.444Z,50.26
2023-03-23T17:52:42.804Z,50.33
2023-03-23T17:55:09.804Z,50.45
2023-03-23T17:57:36.803Z,51.26
2023-03-23T18:00:08.633Z,52.22
2023-03-23T18:02:38.565Z,51.92
2023-03-23T18:05:08.394Z,52.39
2023-03-23T18:07:35.907Z,51.20
2023-03-23T18:10:03.990Z,52.13
2023-03-23T18:12:30.962Z,52.10
2023-03-23T18:14:59.007Z,52.24
2023-03-23T18:17:26.858Z,51.79
2023-03-23T18:19:54.160Z,51.78
2023-03-23T18:22:21.676Z,51.63
2023-03-23T18:24:48.612Z,51.74
2023-03-23T18:27:16.022Z,52.16
2023-03-23T18:29:43.270Z,51.74
2023-03-23T18:32:10.211Z,52.28
2023-03-23T18:34:38.098Z,52.47
2023-03-23T18:37:05.136Z,52.44
2023-03-23T18:39:34.304Z,52.54
2023-03-23T18:42:01.734Z,53.01
2023-03-23T18:44:28.690Z,53.23
2023-03-23T18:46:55.821Z,54.20
2023-03-23T18:49:23.765Z,53.83
2023-03-23T18:51:51.002Z,54.75
2023-03-23T18:54:17.888Z,54.05
2023-03-23T18:56:44.889Z,54.08
2023-03-23T18:59:11.929Z,54.00
2023-03-23T19:01:39.283Z,54.30
2023-03-23T19:04:07.192Z,53.87
2023-03-23T19:06:35.210Z,54.29
2023-03-23T19:09:02.320Z,54.40
2023-03-23T19:11:29.311Z,54.40
2023-03-23T19:14:02.518Z,53.75
2023-03-23T19:16:36.210Z,54.44
2023-03-23T19:19:04.470Z,54.40
2023-03-23T19:21:32.655Z,54.78
2023-03-23T19:24:01.019Z,54.66
2023-03-23T19:26:33.936Z,55.13
2023-03-23T19:29:25.456Z,55.79
2023-03-23T19:31:50.226Z,54.91
2023-03-23T19:34:17.380Z,54.80
2023-03-23T19:36:51.355Z,54.53
2023-03-23T19:39:22.223Z,54.45
2023-03-23T19:41:50.229Z,54.73
2023-03-23T19:44:18.021Z,54.96
2023-03-23T19:46:45.545Z,54.75
2023-03-23T19:49:12.636Z,54.37
2023-03-23T19:51:39.901Z,54.70
2023-03-23T19:54:09.933Z,54.57
2023-03-23T19:56:37.327Z,54.77
2023-03-23T19:59:05.235Z,54.91
2023-03-23T20:01:32.487Z,55.36
2023-03-23T20:04:00.238Z,54.70
2023-03-23T20:06:29.290Z,54.98
2023-03-23T20:08:59.877Z,55.23
2023-03-23T20:11:28.941Z,55.11
2023-03-23T20:13:56.565Z,55.59
2023-03-23T20:16:24.191Z,55.28
2023-03-23T20:18:52.899Z,55.52
2023-03-23T20:21:22.962Z,55.69
2023-03-23T20:23:53.537Z,55.97
2023-03-23T20:26:24.567Z,55.70
2023-03-23T20:28:52.316Z,55.94
2023-03-23T20:31:28.205Z,55.48
2023-03-23T20:34:03.246Z,55.64
2023-03-23T20:36:35.931Z,56.60
2023-03-23T20:39:06.327Z,55.92
2023-03-23T20:41:36.300Z,56.61
2023-03-23T20:44:07.854Z,56.69
2023-03-23T20:46:35.440Z,56.45
2023-03-23T20:49:02.799Z,56.59
2023-03-23T20:51:29.926Z,56.76
2023-03-23T20:53:56.845Z,57.06
2023-03-23T20:56:24.670Z,56.94
2023-03-23T20:58:52.175Z,56.91
2023-03-23T21:01:19.160Z,56.98
2023-03-23T21:03:46.138Z,57.04
2023-03-23T21:06:13.363Z,57.55
2023-03-23T21:08:41.526Z,57.17
2023-03-23T21:11:14.022Z,57.83
2023-03-23T21:13:40.973Z,57.19
2023-03-23T21:16:08.566Z,57.31
2023-03-23T21:18:35.643Z,57.47
2023-03-23T21:21:02.844Z,57.46
2023-03-23T21:23:30.230Z,57.92
2023-03-23T21:26:08.233Z,58.39
2023-03-23T21:28:35.143Z,58.64
2023-03-23T21:31:03.819Z,58.44
2023-03-23T21:33:31.145Z,58.82
2023-03-23T21:35:58.484Z,59.73
2023-03-23T21:38:28.189Z,59.77
2023-03-23T21:40:57.723Z,59.49
2023-03-23T21:43:27.679Z,59.76
2023-03-23T21:46:03.098Z,59.65
2023-03-23T21:48:30.033Z,59.87
2023-03-23T21:50:57.469Z,60.36
2023-03-23T21:53:25.664Z,60.32
2023-03-23T21:55:53.080Z,60.75
2023-03-23T21:58:27.588Z,60.67
2023-03-23T22:00:55.951Z,60.66
2023-03-23T22:03:25.659Z,59.93
2023-03-23T22:05:57.034Z,61.13
2023-03-23T22:08:29.369Z,61.16
2023-03-23T22:11:02.014Z,60.38
2023-03-23T22:13:33.658Z,60.82
2023-03-23T22:16:02.144Z,60.62
2023-03-23T22:18:29.674Z,61.13
2023-03-23T22:20:57.349Z,61.06
2023-03-23T22:23:24.235Z,60.74
2023-03-23T22:25:51.485Z,60.33
2023-03-23T22:28:19.772Z,61.02
2023-03-23T22:30:47.770Z,60.63
2023-03-23T22:33:15.084Z,60.33
2023-03-23T22:35:42.064Z,60.86
2023-03-23T22:38:08.983Z,60.73
2023-03-23T22:40:36.270Z,61.11
2023-03-23T22:43:03.956Z,60.93
2023-03-23T22:45:31.781Z,61.13
2023-03-23T22:47:59.997Z,60.81
2023-03-23T22:50:27.915Z,61.66
2023-03-23T22:52:54.827Z,61.58
2023-03-23T22:55:21.771Z,61.93
2023-03-23T22:57:48.672Z,61.18
2023-03-23T23:00:15.858Z,62.17
2023-03-23T23:02:43.650Z,62.20
2023-03-23T23:05:12.604Z,62.52
2023-03-23T23:07:39.628Z,62.49
2023-03-23T23:10:07.091Z,62.50
2023-03-23T23:12:35.466Z,62.84
2023-03-23T23:15:07.307Z,62.67
2023-03-23T23:17:35.007Z,63.12
2023-03-23T23:20:05.791Z,62.81
2023-03-23T23:22:33.681Z,63.67
2023-03-23T23:25:01.446Z,62.88
2023-03-23T23:27:28.427Z,63.32
2023-03-23T23:29:55.346Z,63.67
2023-03-23T23:32:22.247Z,64.41
2023-03-23T23:34:49.180Z,63.60
2023-03-23T23:37:16.311Z,64.55
2023-03-23T23:39:43.276Z,64.43
2023-03-23T23:42:10.445Z,64.09
2023-03-23T23:44:38.853Z,65.84
2023-03-23T23:47:06.071Z,65.07
2023-03-23T23:49:34.467Z,64.18
2023-03-23T23:52:01.388Z,64.34
2023-03-23T23:54:32.017Z,64.15
2023-03-23T23:57:01.217Z,65.27
2023-03-23T23:59:29.247Z,65.13
